sensor_id;sensor_type;location;lat;lon;timestamp;temperature;humidity
55492;DHT22;41354;52.990;6.878;2022-07-29T00:00:40;14.20;99.90
55492;DHT22;41354;52.990;6.878;2022-07-29T00:03:06;14.20;99.90
55492;DHT22;41354;52.990;6.878;2022-07-29T00:05:31;14.10;99.90
55492;DHT22;41354;52.990;6.878;2022-07-29T00:07:57;14.10;99.90
55492;DHT22;41354;52.990;6.878;2022-07-29T00:10:22;14.20;99.90
55492;DHT22;41354;52.990;6.878;2022-07-29T00:12:48;14.20;99.90
55492;DHT22;41354;52.990;6.878;2022-07-29T00:15:14;14.20;99.90
55492;DHT22;41354;52.990;6.878;2022-07-29T00:17:39;14.20;99.90
55492;DHT22;41354;52.990;6.878;2022-07-29T00:20:06;14.20;99.90
55492;DHT22;41354;52.990;6.878;2022-07-29T00:22:31;14.20;99.90
55492;DHT22;41354;52.990;6.878;2022-07-29T00:24:57;14.20;99.90
55492;DHT22;41354;52.990;6.878;2022-07-29T00:27:23;14.20;99.90
55492;DHT22;41354;52.990;6.878;2022-07-29T00:29:48;14.20;99.90
55492;DHT22;41354;52.990;6.878;2022-07-29T00:32:14;14.20;99.90
55492;DHT22;41354;52.990;6.878;2022-07-29T00:34:40;14.10;99.90
55492;DHT22;41354;52.990;6.878;2022-07-29T00:37:24;14.10;99.90
55492;DHT22;41354;52.990;6.878;2022-07-29T00:39:50;14.10;99.90
55492;DHT22;41354;52.990;6.878;2022-07-29T00:42:16;14.10;99.90
55492;DHT22;41354;52.990;6.878;2022-07-29T00:44:42;14.10;99.90
55492;DHT22;41354;52.990;6.878;2022-07-29T00:47:09;14.10;99.90
55492;DHT22;41354;52.990;6.878;2022-07-29T00:49:35;14.10;99.90
55492;DHT22;41354;52.990;6.878;2022-07-29T00:52:02;14.10;99.90
55492;DHT22;41354;52.990;6.878;2022-07-29T00:54:28;14.10;99.90
55492;DHT22;41354;52.990;6.878;2022-07-29T00:56:58;14.10;99.90
55492;DHT22;41354;52.990;6.878;2022-07-29T00:59:25;14.10;99.90
55492;DHT22;41354;52.990;6.878;2022-07-29T01:01:52;14.10;99.90
55492;DHT22;41354;52.990;6.878;2022-07-29T01:04:18;14.20;99.90
55492;DHT22;41354;52.990;6.878;2022-07-29T01:06:43;14.10;99.90
55492;DHT22;41354;52.990;6.878;2022-07-29T01:09:10;14.10;99.90
55492;DHT22;41354;52.990;6.878;2022-07-29T01:11:36;14.10;99.90
55492;DHT22;41354;52.990;6.878;2022-07-29T01:14:03;14.10;99.90
55492;DHT22;41354;52.990;6.878;2022-07-29T01:16:32;14.10;99.90
55492;DHT22;41354;52.990;6.878;2022-07-29T01:19:12;14.10;99.90
55492;DHT22;41354;52.990;6.878;2022-07-29T01:21:51;14.10;99.90
55492;DHT22;41354;52.990;6.878;2022-07-29T01:24:34;14.10;99.90
55492;DHT22;41354;52.990;6.878;2022-07-29T01:29:56;14.10;99.90
55492;DHT22;41354;52.990;6.878;2022-07-29T01:32:28;14.10;99.90
55492;DHT22;41354;52.990;6.878;2022-07-29T01:35:16;14.10;99.90
55492;DHT22;41354;52.990;6.878;2022-07-29T01:37:55;14.10;99.90
55492;DHT22;41354;52.990;6.878;2022-07-29T01:43:13;14.10;99.90
55492;DHT22;41354;52.990;6.878;2022-07-29T01:46:00;14.10;99.90
55492;DHT22;41354;52.990;6.878;2022-07-29T01:48:46;14.10;99.90
55492;DHT22;41354;52.990;6.878;2022-07-29T01:51:18;14.10;99.90
55492;DHT22;41354;52.990;6.878;2022-07-29T01:56:37;14.10;99.90
55492;DHT22;41354;52.990;6.878;2022-07-29T01:59:06;14.10;99.90
55492;DHT22;41354;52.990;6.878;2022-07-29T02:01:33;14.00;99.90
55492;DHT22;41354;52.990;6.878;2022-07-29T02:04:03;14.10;99.90
55492;DHT22;41354;52.990;6.878;2022-07-29T02:06:32;14.00;99.90
55492;DHT22;41354;52.990;6.878;2022-07-29T02:08:58;14.10;99.90
55492;DHT22;41354;52.990;6.878;2022-07-29T02:11:25;14.10;99.90
55492;DHT22;41354;52.990;6.878;2022-07-29T02:13:53;14.10;99.90
55492;DHT22;41354;52.990;6.878;2022-07-29T02:16:21;14.00;99.90
55492;DHT22;41354;52.990;6.878;2022-07-29T02:18:50;14.00;99.90
55492;DHT22;41354;52.990;6.878;2022-07-29T02:21:21;14.10;99.90
55492;DHT22;41354;52.990;6.878;2022-07-29T02:23:48;14.00;99.90
55492;DHT22;41354;52.990;6.878;2022-07-29T02:26:17;14.00;99.90
55492;DHT22;41354;52.990;6.878;2022-07-29T02:28:43;14.00;99.90
55492;DHT22;41354;52.990;6.878;2022-07-29T02:31:10;14.00;99.90
55492;DHT22;41354;52.990;6.878;2022-07-29T02:33:39;14.00;99.90
55492;DHT22;41354;52.990;6.878;2022-07-29T02:36:06;14.00;99.90
55492;DHT22;41354;52.990;6.878;2022-07-29T02:38:32;14.00;99.90
55492;DHT22;41354;52.990;6.878;2022-07-29T02:41:23;14.00;99.90
55492;DHT22;41354;52.990;6.878;2022-07-29T02:43:54;14.00;99.90
55492;DHT22;41354;52.990;6.878;2022-07-29T02:46:28;14.10;99.90
55492;DHT22;41354;52.990;6.878;2022-07-29T02:51:46;14.00;99.90
55492;DHT22;41354;52.990;6.878;2022-07-29T02:54:23;14.00;99.90
55492;DHT22;41354;52.990;6.878;2022-07-29T02:56:52;14.00;99.90
55492;DHT22;41354;52.990;6.878;2022-07-29T02:59:24;14.00;99.90
55492;DHT22;41354;52.990;6.878;2022-07-29T03:01:52;13.90;99.90
55492;DHT22;41354;52.990;6.878;2022-07-29T03:04:19;14.00;99.90
55492;DHT22;41354;52.990;6.878;2022-07-29T03:06:46;14.00;99.90
55492;DHT22;41354;52.990;6.878;2022-07-29T03:09:13;14.00;99.90
55492;DHT22;41354;52.990;6.878;2022-07-29T03:11:40;14.00;99.90
55492;DHT22;41354;52.990;6.878;2022-07-29T03:14:07;14.00;99.90
55492;DHT22;41354;52.990;6.878;2022-07-29T03:16:33;14.00;99.90
55492;DHT22;41354;52.990;6.878;2022-07-29T03:19:02;14.10;99.90
55492;DHT22;41354;52.990;6.878;2022-07-29T03:21:28;14.00;99.90
55492;DHT22;41354;52.990;6.878;2022-07-29T03:23:54;14.00;99.90
55492;DHT22;41354;52.990;6.878;2022-07-29T03:26:19;14.00;99.90
55492;DHT22;41354;52.990;6.878;2022-07-29T03:28:45;14.00;99.90
55492;DHT22;41354;52.990;6.878;2022-07-29T03:31:10;14.00;99.90
55492;DHT22;41354;52.990;6.878;2022-07-29T03:33:36;14.00;99.90
55492;DHT22;41354;52.990;6.878;2022-07-29T03:36:01;14.00;99.90
55492;DHT22;41354;52.990;6.878;2022-07-29T03:38:29;14.00;99.90
55492;DHT22;41354;52.990;6.878;2022-07-29T03:41:00;14.00;99.90
55492;DHT22;41354;52.990;6.878;2022-07-29T03:43:30;14.00;99.90
55492;DHT22;41354;52.990;6.878;2022-07-29T03:45:57;14.00;99.90
55492;DHT22;41354;52.990;6.878;2022-07-29T03:48:26;13.90;99.90
55492;DHT22;41354;52.990;6.878;2022-07-29T03:50:55;13.90;99.90
55492;DHT22;41354;52.990;6.878;2022-07-29T03:53:21;13.90;99.90
55492;DHT22;41354;52.990;6.878;2022-07-29T03:55:50;13.90;99.90
55492;DHT22;41354;52.990;6.878;2022-07-29T03:58:18;13.90;99.90
55492;DHT22;41354;52.990;6.878;2022-07-29T04:00:44;13.90;99.90
55492;DHT22;41354;52.990;6.878;2022-07-29T04:03:10;13.90;99.90
55492;DHT22;41354;52.990;6.878;2022-07-29T04:05:36;13.90;99.90
55492;DHT22;41354;52.990;6.878;2022-07-29T04:08:02;14.00;99.90
55492;DHT22;41354;52.990;6.878;2022-07-29T04:10:27;14.00;99.90
55492;DHT22;41354;52.990;6.878;2022-07-29T04:12:53;13.90;99.90
55492;DHT22;41354;52.990;6.878;2022-07-29T04:15:19;14.00;99.90
55492;DHT22;41354;52.990;6.878;2022-07-29T04:17:44;14.00;99.90
55492;DHT22;41354;52.990;6.878;2022-07-29T04:20:10;14.00;99.90
55492;DHT22;41354;52.990;6.878;2022-07-29T04:22:39;14.00;99.90
55492;DHT22;41354;52.990;6.878;2022-07-29T04:25:05;14.10;99.90
55492;DHT22;41354;52.990;6.878;2022-07-29T04:27:31;14.10;99.90
55492;DHT22;41354;52.990;6.878;2022-07-29T04:29:56;14.10;99.90
55492;DHT22;41354;52.990;6.878;2022-07-29T04:32:22;14.10;99.90
55492;DHT22;41354;52.990;6.878;2022-07-29T04:34:47;14.10;99.90
55492;DHT22;41354;52.990;6.878;2022-07-29T04:37:13;14.10;99.90
55492;DHT22;41354;52.990;6.878;2022-07-29T04:39:38;14.10;99.90
55492;DHT22;41354;52.990;6.878;2022-07-29T04:42:04;14.20;99.90
55492;DHT22;41354;52.990;6.878;2022-07-29T04:44:30;14.20;99.90
55492;DHT22;41354;52.990;6.878;2022-07-29T04:46:56;14.20;99.90
55492;DHT22;41354;52.990;6.878;2022-07-29T04:49:22;14.20;99.90
55492;DHT22;41354;52.990;6.878;2022-07-29T04:51:48;14.30;99.90
55492;DHT22;41354;52.990;6.878;2022-07-29T04:54:14;14.30;99.90
55492;DHT22;41354;52.990;6.878;2022-07-29T04:56:39;14.40;99.90
55492;DHT22;41354;52.990;6.878;2022-07-29T04:59:05;14.50;99.90
55492;DHT22;41354;52.990;6.878;2022-07-29T05:01:30;14.50;99.90
55492;DHT22;41354;52.990;6.878;2022-07-29T05:03:56;14.60;99.90
55492;DHT22;41354;52.990;6.878;2022-07-29T05:06:21;14.60;99.90
55492;DHT22;41354;52.990;6.878;2022-07-29T05:08:47;14.70;99.90
55492;DHT22;41354;52.990;6.878;2022-07-29T05:11:12;14.80;99.90
55492;DHT22;41354;52.990;6.878;2022-07-29T05:13:38;14.80;99.90
55492;DHT22;41354;52.990;6.878;2022-07-29T05:16:04;14.90;99.90
55492;DHT22;41354;52.990;6.878;2022-07-29T05:18:30;15.00;99.90
55492;DHT22;41354;52.990;6.878;2022-07-29T05:20:55;15.00;99.90
55492;DHT22;41354;52.990;6.878;2022-07-29T05:23:21;15.10;99.90
55492;DHT22;41354;52.990;6.878;2022-07-29T05:25:47;15.10;99.90
55492;DHT22;41354;52.990;6.878;2022-07-29T05:28:12;15.20;99.90
55492;DHT22;41354;52.990;6.878;2022-07-29T05:30:38;15.20;99.90
55492;DHT22;41354;52.990;6.878;2022-07-29T05:33:03;15.30;99.90
55492;DHT22;41354;52.990;6.878;2022-07-29T05:35:29;15.30;99.90
55492;DHT22;41354;52.990;6.878;2022-07-29T05:37:55;15.40;99.90
55492;DHT22;41354;52.990;6.878;2022-07-29T05:40:20;15.40;99.90
55492;DHT22;41354;52.990;6.878;2022-07-29T05:42:46;15.50;99.90
55492;DHT22;41354;52.990;6.878;2022-07-29T05:45:11;15.50;99.90
55492;DHT22;41354;52.990;6.878;2022-07-29T05:47:37;15.60;99.90
55492;DHT22;41354;52.990;6.878;2022-07-29T05:50:03;15.60;99.90
55492;DHT22;41354;52.990;6.878;2022-07-29T05:52:29;15.60;99.90
55492;DHT22;41354;52.990;6.878;2022-07-29T05:54:55;15.60;99.90
55492;DHT22;41354;52.990;6.878;2022-07-29T05:57:23;15.60;99.90
55492;DHT22;41354;52.990;6.878;2022-07-29T05:59:49;15.70;99.90
55492;DHT22;41354;52.990;6.878;2022-07-29T06:02:15;15.70;99.90
55492;DHT22;41354;52.990;6.878;2022-07-29T06:04:41;15.60;99.90
55492;DHT22;41354;52.990;6.878;2022-07-29T06:07:06;15.70;99.90
55492;DHT22;41354;52.990;6.878;2022-07-29T06:09:33;15.70;99.90
55492;DHT22;41354;52.990;6.878;2022-07-29T06:11:58;15.70;99.90
55492;DHT22;41354;52.990;6.878;2022-07-29T06:14:24;15.60;99.90
55492;DHT22;41354;52.990;6.878;2022-07-29T06:16:51;15.70;99.90
55492;DHT22;41354;52.990;6.878;2022-07-29T06:19:16;15.70;99.90
55492;DHT22;41354;52.990;6.878;2022-07-29T06:21:43;15.80;99.90
55492;DHT22;41354;52.990;6.878;2022-07-29T06:24:10;15.90;99.90
55492;DHT22;41354;52.990;6.878;2022-07-29T06:26:36;16.00;99.90
55492;DHT22;41354;52.990;6.878;2022-07-29T06:29:01;16.10;99.90
55492;DHT22;41354;52.990;6.878;2022-07-29T06:31:27;16.20;99.90
55492;DHT22;41354;52.990;6.878;2022-07-29T06:33:52;16.30;99.90
55492;DHT22;41354;52.990;6.878;2022-07-29T06:36:18;16.50;99.90
55492;DHT22;41354;52.990;6.878;2022-07-29T06:38:43;16.60;99.90
55492;DHT22;41354;52.990;6.878;2022-07-29T06:41:09;16.60;99.90
55492;DHT22;41354;52.990;6.878;2022-07-29T06:43:39;16.60;99.90
55492;DHT22;41354;52.990;6.878;2022-07-29T06:46:16;16.70;99.90
55492;DHT22;41354;52.990;6.878;2022-07-29T06:48:45;16.70;99.90
55492;DHT22;41354;52.990;6.878;2022-07-29T06:51:13;16.80;99.90
55492;DHT22;41354;52.990;6.878;2022-07-29T06:53:39;16.80;99.90
55492;DHT22;41354;52.990;6.878;2022-07-29T06:56:05;16.90;99.90
55492;DHT22;41354;52.990;6.878;2022-07-29T06:58:33;16.90;99.90
55492;DHT22;41354;52.990;6.878;2022-07-29T07:01:02;16.90;99.90
55492;DHT22;41354;52.990;6.878;2022-07-29T07:03:28;17.00;99.90
55492;DHT22;41354;52.990;6.878;2022-07-29T07:05:54;17.00;99.90
55492;DHT22;41354;52.990;6.878;2022-07-29T07:08:20;17.00;99.90
55492;DHT22;41354;52.990;6.878;2022-07-29T07:10:47;17.00;99.90
55492;DHT22;41354;52.990;6.878;2022-07-29T07:13:13;17.10;99.90
55492;DHT22;41354;52.990;6.878;2022-07-29T07:15:40;17.10;99.90
55492;DHT22;41354;52.990;6.878;2022-07-29T07:18:06;17.10;99.90
55492;DHT22;41354;52.990;6.878;2022-07-29T07:20:33;17.30;99.90
55492;DHT22;41354;52.990;6.878;2022-07-29T07:22:59;17.40;99.90
55492;DHT22;41354;52.990;6.878;2022-07-29T07:25:24;17.40;99.90
55492;DHT22;41354;52.990;6.878;2022-07-29T07:27:50;17.50;99.90
55492;DHT22;41354;52.990;6.878;2022-07-29T07:30:16;17.60;99.90
55492;DHT22;41354;52.990;6.878;2022-07-29T07:32:42;17.70;99.90
55492;DHT22;41354;52.990;6.878;2022-07-29T07:35:08;17.80;99.90
55492;DHT22;41354;52.990;6.878;2022-07-29T07:37:34;17.80;99.90
55492;DHT22;41354;52.990;6.878;2022-07-29T07:40:00;17.80;99.90
55492;DHT22;41354;52.990;6.878;2022-07-29T07:42:26;17.90;99.90
55492;DHT22;41354;52.990;6.878;2022-07-29T07:44:51;18.00;99.90
55492;DHT22;41354;52.990;6.878;2022-07-29T07:47:18;18.00;99.90
55492;DHT22;41354;52.990;6.878;2022-07-29T07:49:48;18.00;99.90
55492;DHT22;41354;52.990;6.878;2022-07-29T07:52:15;18.00;99.90
55492;DHT22;41354;52.990;6.878;2022-07-29T07:54:41;18.10;99.90
55492;DHT22;41354;52.990;6.878;2022-07-29T07:57:08;18.20;99.90
55492;DHT22;41354;52.990;6.878;2022-07-29T07:59:34;18.20;99.90
55492;DHT22;41354;52.990;6.878;2022-07-29T08:01:59;18.40;99.90
55492;DHT22;41354;52.990;6.878;2022-07-29T08:04:26;18.50;99.90
55492;DHT22;41354;52.990;6.878;2022-07-29T08:06:52;18.70;99.90
55492;DHT22;41354;52.990;6.878;2022-07-29T08:09:20;18.80;99.90
55492;DHT22;41354;52.990;6.878;2022-07-29T08:11:45;19.00;99.90
55492;DHT22;41354;52.990;6.878;2022-07-29T08:14:11;19.20;99.90
55492;DHT22;41354;52.990;6.878;2022-07-29T08:16:36;19.30;99.90
55492;DHT22;41354;52.990;6.878;2022-07-29T08:19:02;19.30;99.90
55492;DHT22;41354;52.990;6.878;2022-07-29T08:21:28;19.40;99.90
55492;DHT22;41354;52.990;6.878;2022-07-29T08:23:53;19.60;99.90
55492;DHT22;41354;52.990;6.878;2022-07-29T08:26:40;19.70;99.90
55492;DHT22;41354;52.990;6.878;2022-07-29T08:29:05;19.70;99.90
55492;DHT22;41354;52.990;6.878;2022-07-29T08:31:31;19.80;99.90
55492;DHT22;41354;52.990;6.878;2022-07-29T08:33:56;19.90;99.90
55492;DHT22;41354;52.990;6.878;2022-07-29T08:36:25;19.90;99.90
55492;DHT22;41354;52.990;6.878;2022-07-29T08:38:51;19.90;99.90
55492;DHT22;41354;52.990;6.878;2022-07-29T08:41:18;19.80;99.90
55492;DHT22;41354;52.990;6.878;2022-07-29T08:43:45;19.90;99.90
55492;DHT22;41354;52.990;6.878;2022-07-29T08:46:10;19.90;99.90
55492;DHT22;41354;52.990;6.878;2022-07-29T08:48:36;19.80;99.90
55492;DHT22;41354;52.990;6.878;2022-07-29T08:51:02;19.70;99.90
55492;DHT22;41354;52.990;6.878;2022-07-29T08:53:28;19.70;99.90
55492;DHT22;41354;52.990;6.878;2022-07-29T08:55:54;19.40;99.90
55492;DHT22;41354;52.990;6.878;2022-07-29T08:58:21;19.40;99.90
55492;DHT22;41354;52.990;6.878;2022-07-29T09:00:52;19.40;99.90
55492;DHT22;41354;52.990;6.878;2022-07-29T09:03:20;19.50;99.90
55492;DHT22;41354;52.990;6.878;2022-07-29T09:05:46;19.60;99.90
55492;DHT22;41354;52.990;6.878;2022-07-29T09:08:13;19.70;99.90
55492;DHT22;41354;52.990;6.878;2022-07-29T09:10:39;19.70;99.90
55492;DHT22;41354;52.990;6.878;2022-07-29T09:13:05;19.90;99.90
55492;DHT22;41354;52.990;6.878;2022-07-29T09:15:31;20.10;99.90
55492;DHT22;41354;52.990;6.878;2022-07-29T09:17:56;20.30;99.90
55492;DHT22;41354;52.990;6.878;2022-07-29T09:20:24;20.60;99.90
55492;DHT22;41354;52.990;6.878;2022-07-29T09:22:51;20.60;99.90
55492;DHT22;41354;52.990;6.878;2022-07-29T09:25:34;20.80;99.90
55492;DHT22;41354;52.990;6.878;2022-07-29T09:28:17;21.00;99.90
55492;DHT22;41354;52.990;6.878;2022-07-29T09:30:57;21.30;99.90
55492;DHT22;41354;52.990;6.878;2022-07-29T09:33:32;21.70;99.90
55492;DHT22;41354;52.990;6.878;2022-07-29T09:36:06;22.10;99.90
55492;DHT22;41354;52.990;6.878;2022-07-29T09:38:33;22.20;99.90
55492;DHT22;41354;52.990;6.878;2022-07-29T09:41:01;22.20;99.90
55492;DHT22;41354;52.990;6.878;2022-07-29T09:43:27;22.20;99.90
55492;DHT22;41354;52.990;6.878;2022-07-29T09:45:53;22.30;99.90
55492;DHT22;41354;52.990;6.878;2022-07-29T09:48:24;22.40;99.90
55492;DHT22;41354;52.990;6.878;2022-07-29T09:50:50;22.40;99.90
55492;DHT22;41354;52.990;6.878;2022-07-29T09:53:36;22.30;99.90
55492;DHT22;41354;52.990;6.878;2022-07-29T09:56:03;22.20;99.90
55492;DHT22;41354;52.990;6.878;2022-07-29T09:58:29;22.10;99.90
55492;DHT22;41354;52.990;6.878;2022-07-29T10:00:55;22.00;99.90
55492;DHT22;41354;52.990;6.878;2022-07-29T10:03:22;22.00;99.90
55492;DHT22;41354;52.990;6.878;2022-07-29T10:06:10;22.10;99.90
55492;DHT22;41354;52.990;6.878;2022-07-29T10:08:37;22.20;99.90
55492;DHT22;41354;52.990;6.878;2022-07-29T10:11:17;22.20;99.90
55492;DHT22;41354;52.990;6.878;2022-07-29T10:13:45;22.30;99.90
55492;DHT22;41354;52.990;6.878;2022-07-29T10:16:11;22.40;99.90
55492;DHT22;41354;52.990;6.878;2022-07-29T10:18:39;22.50;99.90
55492;DHT22;41354;52.990;6.878;2022-07-29T10:21:05;22.60;99.90
55492;DHT22;41354;52.990;6.878;2022-07-29T10:23:31;22.60;99.90
55492;DHT22;41354;52.990;6.878;2022-07-29T10:25:57;22.50;99.90
55492;DHT22;41354;52.990;6.878;2022-07-29T10:28:22;22.50;99.90
55492;DHT22;41354;52.990;6.878;2022-07-29T10:30:50;22.60;99.90
55492;DHT22;41354;52.990;6.878;2022-07-29T10:33:20;22.70;99.90
55492;DHT22;41354;52.990;6.878;2022-07-29T10:38:42;22.70;99.90
55492;DHT22;41354;52.990;6.878;2022-07-29T10:43:58;22.60;99.90
55492;DHT22;41354;52.990;6.878;2022-07-29T10:46:25;22.60;99.90
55492;DHT22;41354;52.990;6.878;2022-07-29T10:54:37;23.10;99.70
55492;DHT22;41354;52.990;6.878;2022-07-29T10:57:24;23.10;99.60
55492;DHT22;41354;52.990;6.878;2022-07-29T11:05:07;22.80;99.20
55492;DHT22;41354;52.990;6.878;2022-07-29T11:07:35;22.80;99.40
55492;DHT22;41354;52.990;6.878;2022-07-29T11:15:11;22.50;99.90
55492;DHT22;41354;52.990;6.878;2022-07-29T11:20:36;22.40;99.90
55492;DHT22;41354;52.990;6.878;2022-07-29T11:23:24;22.20;99.90
55492;DHT22;41354;52.990;6.878;2022-07-29T11:28:54;21.90;99.90
55492;DHT22;41354;52.990;6.878;2022-07-29T11:33:56;22.00;99.90
55492;DHT22;41354;52.990;6.878;2022-07-29T11:36:22;22.10;99.90
55492;DHT22;41354;52.990;6.878;2022-07-29T11:38:47;22.20;99.90
55492;DHT22;41354;52.990;6.878;2022-07-29T11:43:48;22.30;99.90
55492;DHT22;41354;52.990;6.878;2022-07-29T11:49:02;22.70;99.90
55492;DHT22;41354;52.990;6.878;2022-07-29T11:51:28;22.80;99.90
55492;DHT22;41354;52.990;6.878;2022-07-29T11:53:53;22.90;99.90
55492;DHT22;41354;52.990;6.878;2022-07-29T11:56:21;23.00;99.90
55492;DHT22;41354;52.990;6.878;2022-07-29T11:58:47;23.20;99.90
55492;DHT22;41354;52.990;6.878;2022-07-29T12:01:14;23.30;99.90
55492;DHT22;41354;52.990;6.878;2022-07-29T12:03:42;23.30;99.90
55492;DHT22;41354;52.990;6.878;2022-07-29T12:06:14;23.50;99.90
55492;DHT22;41354;52.990;6.878;2022-07-29T12:08:41;23.50;99.90
55492;DHT22;41354;52.990;6.878;2022-07-29T12:11:18;23.60;99.90
55492;DHT22;41354;52.990;6.878;2022-07-29T12:13:44;23.80;99.90
55492;DHT22;41354;52.990;6.878;2022-07-29T12:16:09;23.90;99.90
55492;DHT22;41354;52.990;6.878;2022-07-29T12:18:35;24.00;99.90
55492;DHT22;41354;52.990;6.878;2022-07-29T12:21:02;24.30;99.90
55492;DHT22;41354;52.990;6.878;2022-07-29T12:23:29;24.40;99.30
55492;DHT22;41354;52.990;6.878;2022-07-29T12:25:55;24.50;98.80
55492;DHT22;41354;52.990;6.878;2022-07-29T12:28:21;24.60;98.60
55492;DHT22;41354;52.990;6.878;2022-07-29T12:30:48;24.70;98.20
55492;DHT22;41354;52.990;6.878;2022-07-29T12:33:20;24.90;98.00
55492;DHT22;41354;52.990;6.878;2022-07-29T12:35:53;25.00;97.10
55492;DHT22;41354;52.990;6.878;2022-07-29T12:38:19;25.00;97.50
55492;DHT22;41354;52.990;6.878;2022-07-29T12:40:47;24.80;97.80
55492;DHT22;41354;52.990;6.878;2022-07-29T12:45:44;24.70;96.60
55492;DHT22;41354;52.990;6.878;2022-07-29T12:48:10;24.60;96.70
55492;DHT22;41354;52.990;6.878;2022-07-29T12:50:51;24.40;96.50
55492;DHT22;41354;52.990;6.878;2022-07-29T12:53:18;24.30;96.90
55492;DHT22;41354;52.990;6.878;2022-07-29T12:55:46;24.10;96.90
55492;DHT22;41354;52.990;6.878;2022-07-29T12:58:37;24.00;97.70
55492;DHT22;41354;52.990;6.878;2022-07-29T13:01:17;24.00;97.70
55492;DHT22;41354;52.990;6.878;2022-07-29T13:06:33;24.00;97.50
55492;DHT22;41354;52.990;6.878;2022-07-29T13:09:07;24.10;97.90
55492;DHT22;41354;52.990;6.878;2022-07-29T13:11:33;24.30;97.60
55492;DHT22;41354;52.990;6.878;2022-07-29T13:13:59;24.50;97.10
55492;DHT22;41354;52.990;6.878;2022-07-29T13:16:25;24.50;96.60
55492;DHT22;41354;52.990;6.878;2022-07-29T13:19:03;24.50;96.20
55492;DHT22;41354;52.990;6.878;2022-07-29T13:21:29;24.50;96.80
55492;DHT22;41354;52.990;6.878;2022-07-29T13:23:54;24.60;97.00
55492;DHT22;41354;52.990;6.878;2022-07-29T13:26:20;24.60;96.40
55492;DHT22;41354;52.990;6.878;2022-07-29T13:28:46;24.80;96.30
55492;DHT22;41354;52.990;6.878;2022-07-29T13:31:11;25.10;94.90
55492;DHT22;41354;52.990;6.878;2022-07-29T13:33:37;25.40;95.20
55492;DHT22;41354;52.990;6.878;2022-07-29T13:36:03;25.60;93.60
55492;DHT22;41354;52.990;6.878;2022-07-29T13:38:28;26.00;93.60
55492;DHT22;41354;52.990;6.878;2022-07-29T13:40:55;26.50;92.20
55492;DHT22;41354;52.990;6.878;2022-07-29T13:43:21;26.80;91.60
55492;DHT22;41354;52.990;6.878;2022-07-29T13:45:46;27.10;92.10
55492;DHT22;41354;52.990;6.878;2022-07-29T13:48:12;26.90;90.90
55492;DHT22;41354;52.990;6.878;2022-07-29T13:50:37;26.80;90.80
55492;DHT22;41354;52.990;6.878;2022-07-29T13:53:03;26.90;90.20
55492;DHT22;41354;52.990;6.878;2022-07-29T13:55:29;26.70;89.20
55492;DHT22;41354;52.990;6.878;2022-07-29T13:57:54;26.40;88.70
55492;DHT22;41354;52.990;6.878;2022-07-29T14:00:20;26.20;88.80
55492;DHT22;41354;52.990;6.878;2022-07-29T14:02:46;26.10;89.10
55492;DHT22;41354;52.990;6.878;2022-07-29T14:05:11;26.10;90.40
55492;DHT22;41354;52.990;6.878;2022-07-29T14:07:38;26.10;90.80
55492;DHT22;41354;52.990;6.878;2022-07-29T14:10:06;26.20;91.00
55492;DHT22;41354;52.990;6.878;2022-07-29T14:12:32;26.40;90.40
55492;DHT22;41354;52.990;6.878;2022-07-29T14:14:58;26.70;88.90
55492;DHT22;41354;52.990;6.878;2022-07-29T14:17:23;27.00;87.00
55492;DHT22;41354;52.990;6.878;2022-07-29T14:19:49;27.30;86.60
55492;DHT22;41354;52.990;6.878;2022-07-29T14:22:14;27.30;84.60
55492;DHT22;41354;52.990;6.878;2022-07-29T14:24:40;27.10;83.20
55492;DHT22;41354;52.990;6.878;2022-07-29T14:27:07;26.90;83.40
55492;DHT22;41354;52.990;6.878;2022-07-29T14:29:33;26.70;81.60
55492;DHT22;41354;52.990;6.878;2022-07-29T14:31:58;26.60;82.60
55492;DHT22;41354;52.990;6.878;2022-07-29T14:34:24;26.40;83.10
55492;DHT22;41354;52.990;6.878;2022-07-29T14:36:50;26.30;83.90
55492;DHT22;41354;52.990;6.878;2022-07-29T14:39:15;26.30;84.10
55492;DHT22;41354;52.990;6.878;2022-07-29T14:41:42;26.10;82.90
55492;DHT22;41354;52.990;6.878;2022-07-29T14:44:08;25.80;83.30
55492;DHT22;41354;52.990;6.878;2022-07-29T14:46:34;25.70;83.20
55492;DHT22;41354;52.990;6.878;2022-07-29T14:48:59;25.60;83.60
55492;DHT22;41354;52.990;6.878;2022-07-29T14:51:25;25.60;84.40
55492;DHT22;41354;52.990;6.878;2022-07-29T14:53:51;25.60;84.50
55492;DHT22;41354;52.990;6.878;2022-07-29T14:56:16;25.60;83.60
55492;DHT22;41354;52.990;6.878;2022-07-29T14:58:42;25.50;83.70
55492;DHT22;41354;52.990;6.878;2022-07-29T15:01:07;25.40;83.10
55492;DHT22;41354;52.990;6.878;2022-07-29T15:03:33;25.50;84.60
55492;DHT22;41354;52.990;6.878;2022-07-29T15:05:58;25.60;84.40
55492;DHT22;41354;52.990;6.878;2022-07-29T15:08:24;25.80;83.70
55492;DHT22;41354;52.990;6.878;2022-07-29T15:10:50;26.30;82.10
55492;DHT22;41354;52.990;6.878;2022-07-29T15:13:16;26.80;80.30
55492;DHT22;41354;52.990;6.878;2022-07-29T15:15:42;26.80;78.60
55492;DHT22;41354;52.990;6.878;2022-07-29T15:18:07;26.70;78.90
55492;DHT22;41354;52.990;6.878;2022-07-29T15:20:34;26.50;77.00
55492;DHT22;41354;52.990;6.878;2022-07-29T15:23:00;26.20;77.30
55492;DHT22;41354;52.990;6.878;2022-07-29T15:25:25;26.10;76.80
55492;DHT22;41354;52.990;6.878;2022-07-29T15:27:51;26.10;76.70
55492;DHT22;41354;52.990;6.878;2022-07-29T15:30:17;26.40;77.30
55492;DHT22;41354;52.990;6.878;2022-07-29T15:32:43;26.80;76.20
55492;DHT22;41354;52.990;6.878;2022-07-29T15:35:09;27.30;74.80
55492;DHT22;41354;52.990;6.878;2022-07-29T15:37:38;27.50;73.60
55492;DHT22;41354;52.990;6.878;2022-07-29T15:40:05;27.50;70.70
55492;DHT22;41354;52.990;6.878;2022-07-29T15:42:30;27.40;68.80
55492;DHT22;41354;52.990;6.878;2022-07-29T15:44:56;27.30;66.50
55492;DHT22;41354;52.990;6.878;2022-07-29T15:47:22;27.30;65.00
55492;DHT22;41354;52.990;6.878;2022-07-29T15:49:47;27.60;64.00
55492;DHT22;41354;52.990;6.878;2022-07-29T15:52:18;27.60;64.60
55492;DHT22;41354;52.990;6.878;2022-07-29T15:54:44;27.30;62.70
55492;DHT22;41354;52.990;6.878;2022-07-29T15:57:10;27.00;62.80
55492;DHT22;41354;52.990;6.878;2022-07-29T15:59:36;26.90;63.80
55492;DHT22;41354;52.990;6.878;2022-07-29T16:02:02;26.90;64.40
55492;DHT22;41354;52.990;6.878;2022-07-29T16:04:28;26.70;65.30
55492;DHT22;41354;52.990;6.878;2022-07-29T16:06:53;26.60;66.60
55492;DHT22;41354;52.990;6.878;2022-07-29T16:09:19;26.30;66.70
55492;DHT22;41354;52.990;6.878;2022-07-29T16:11:45;26.30;68.20
55492;DHT22;41354;52.990;6.878;2022-07-29T16:14:12;26.20;69.30
55492;DHT22;41354;52.990;6.878;2022-07-29T16:16:38;26.10;70.10
55492;DHT22;41354;52.990;6.878;2022-07-29T16:19:04;26.00;69.50
55492;DHT22;41354;52.990;6.878;2022-07-29T16:21:30;25.80;71.10
55492;DHT22;41354;52.990;6.878;2022-07-29T16:23:58;25.60;70.70